Nearby METAR Reports

 

LIBG - Grottaglie(Civ/A, Italy
Distance from station: СИ 13km
Актуализирано: 06/10/2022 16:50
NOT Current
Тихо и ясно
Тихо и ясно
 Вятър от С
Вятър: С 17 km/h
Температура: 22°C
Точка на оросяване: 9°C
Влажност: 44%
Барометър: 1025 hPa
Метео сводка: Тихо и ясно
Visibility: greater than 10 km
2022/10/06 14:50 LIBG 061450Z 35009KT CAVOK 22/09 Q1025
LIBH - Marina Di Ginosa, Italy
Distance from station: З 33km
Актуализирано: 06/10/2022 16:55
Тихо и ясно
Тихо и ясно
 Вятър от Ю
Вятър: Ю 7 km/h
Температура: 24°C
Точка на оросяване: 14°C
Влажност: 54%
Барометър: 1024 hPa
Метео сводка: Тихо и ясно
Visibility: greater than 10 km
2022/10/06 14:55 LIBH 061455Z 17004KT CAVOK 24/14 Q1024 RMK BKN BKN200 QUK 2 QUL 1 S VIS MAR 30 KM VIS MIN 9999
 
LIBV - Gioia Del Colle, Italy
Distance from station: СЗ 45km
Актуализирано: 06/10/2022 16:55
Тихо и ясно
Тихо и ясно
 Вятър от С
Вятър: С 15 km/h
Температура: 20°C
Точка на оросяване: 6°C
Влажност: 40%
Барометър: 1025 hPa
Метео сводка: Тихо и ясно
Visibility: greater than 10 km
2022/10/06 14:55 LIBV 061455Z 35008KT CAVOK 20/06 Q1025
LIBR - Brindisi/Casale, Italy
Distance from station: ИСИ 62km
Актуализирано: 06/10/2022 17:50
Тихо и ясно
Тихо и ясно
 Вятър от ССЗ
Вятър: ССЗ 17 km/h
Температура: 20°C
Точка на оросяване: 15°C
Влажност: 73%
Барометър: 1025 hPa
Метео сводка: Тихо и ясно
Visibility: greater than 10 km
2022/10/06 15:50 LIBR 061550Z 34009KT CAVOK 20/15 Q1025
 
LIBN - Lecce (it-Afb), Italy
Distance from station: ИЮИ 79km
Актуализирано: 06/10/2022 16:55
Тихо и ясно
Тихо и ясно
 Вятър от С
Вятър: С 19 km/h
Температура: 20°C
Точка на оросяване: 16°C
Влажност: 78%
Барометър: 1025 hPa
Метео сводка: Тихо и ясно
Visibility: greater than 10 km
2022/10/06 14:55 LIBN 061455Z 35010KT CAVOK 20/16 Q1025
LIBD - Bari/Palese Macc, Italy
Distance from station: ССЗ 85km
Актуализирано: 06/10/2022 17:50
Тихо и ясно
Тихо и ясно
 Вятър от ЗСЗ
Вятър: ЗСЗ 6 km/h
Температура: 20°C
Точка на оросяване: 10°C
Влажност: 53%
Барометър: 1026 hPa
Метео сводка: Тихо и ясно
Visibility: greater than 10 km
2022/10/06 15:50 LIBD 061550Z 30003KT 270V330 CAVOK 20/10 Q1026